Time;durP1;ratioP1;P1;durP2;ratioP2;P2;SDS_P1;SDS_P2;PMS_P1;PMS_P2;Temp;Humidity;BMP_temperature;BMP_pressure;BME280_temperature;BME280_humidity;BME280_pressure;Samples;Min_cycle;Max_cycle;Signal;HPM_P1;HPM_P2
2022/09/22 00:02:08;;;;;;;;;;;;;;;9.59;61.90;95024.91;5090560;28;20030;-74
2022/09/22 00:04:33;;;;;;;;;;;;;;;9.65;62.03;95016.66;5090769;28;19920;-74
2022/09/22 00:06:59;;;;;;;;;;;;;;;9.66;61.79;95018.28;5091921;28;19916;-73
2022/09/22 00:09:24;;;;;;;;;;;;;;;9.38;62.71;95010.00;5090736;28;19920;-74
2022/09/22 00:11:50;;;;;;;;;;;;;;;9.33;62.82;95019.06;5090224;28;19919;-74
2022/09/22 00:14:16;;;;;;;;;;;;;;;9.25;63.35;95014.47;5090628;28;19958;-74
2022/09/22 00:16:43;;;;;;;;;;;;;;;9.18;63.62;95008.91;5073272;28;24155;-74
2022/09/22 00:19:09;;;;;;;;;;;;;;;9.23;63.44;95016.34;5091624;28;20107;-74
2022/09/22 00:21:35;;;;;;;;;;;;;;;9.04;63.72;95001.31;5073204;28;19959;-74
2022/09/22 00:24:01;;;;;;;;;;;;;;;9.07;63.40;95000.28;5090015;28;20283;-74
2022/09/22 00:26:26;;;;;;;;;;;;;;;9.01;63.86;95005.91;5091348;28;20555;-74
2022/09/22 00:28:52;;;;;;;;;;;;;;;8.89;64.15;95002.47;5090576;28;20078;-73
2022/09/22 00:31:20;;;;;;;;;;;;;;;8.79;64.21;95009.25;5091578;28;19961;-73
2022/09/22 00:33:45;;;;;;;;;;;;;;;8.61;64.96;95013.97;5090247;28;20394;-73
2022/09/22 00:36:11;;;;;;;;;;;;;;;8.59;64.94;95011.50;5090021;28;25134;-74
2022/09/22 00:38:36;;;;;;;;;;;;;;;8.52;64.96;95010.28;5091247;28;25117;-74
2022/09/22 00:41:02;;;;;;;;;;;;;;;8.37;65.72;95014.78;5089658;28;20045;-74
2022/09/22 00:43:28;;;;;;;;;;;;;;;8.49;65.91;95011.31;5089599;28;20014;-74
2022/09/22 00:45:55;;;;;;;;;;;;;;;8.37;65.67;95019.13;5089963;28;19912;-74
2022/09/22 00:48:21;;;;;;;;;;;;;;;8.54;65.63;95012.78;5089791;28;25091;-74
2022/09/22 00:50:47;;;;;;;;;;;;;;;8.56;65.69;95010.91;5073042;28;19968;-74
2022/09/22 00:53:13;;;;;;;;;;;;;;;8.56;65.59;95010.91;5089914;28;20331;-74
2022/09/22 00:55:50;;;;;;;;;;;;;;;8.45;66.27;95022.03;5089933;28;19916;-74
2022/09/22 00:58:16;;;;;;;;;;;;;;;8.52;66.15;95001.69;5089674;28;19920;-74
2022/09/22 01:00:41;;;;;;;;;;;;;;;8.64;66.51;95006.00;5072885;28;19923;-74
2022/09/22 01:03:08;;;;;;;;;;;;;;;8.65;65.88;95007.66;5072524;28;19912;-74
2022/09/22 01:05:33;;;;;;;;;;;;;;;8.70;65.28;95008.97;5089682;28;19948;-75
2022/09/22 01:07:59;;;;;;;;;;;;;;;8.66;65.38;95010.16;5089855;28;20020;-74
2022/09/22 01:10:26;;;;;;;;;;;;;;;8.75;65.17;95005.22;5089660;28;24076;-74
2022/09/22 01:13:14;;;;;;;;;;;;;;;8.82;64.73;95003.84;5089442;28;19912;-74
2022/09/22 01:15:44;;;;;;;;;;;;;;;8.80;64.76;95000.53;5089738;28;19916;-74
2022/09/22 01:18:13;;;;;;;;;;;;;;;8.75;65.52;94994.84;5089313;28;24084;-74
2022/09/22 01:20:39;;;;;;;;;;;;;;;8.81;65.17;94994.44;5089025;28;24057;-74
2022/09/22 01:23:34;;;;;;;;;;;;;;;8.90;64.73;94999.75;5089315;28;19912;-74
2022/09/22 01:26:10;;;;;;;;;;;;;;;8.94;64.51;95000.34;5088896;28;19951;-74
2022/09/22 01:28:57;;;;;;;;;;;;;;;8.95;64.48;95002.84;5072571;28;19920;-74
2022/09/22 01:31:38;;;;;;;;;;;;;;;8.83;64.99;94998.56;5089312;28;20006;-74
2022/09/22 01:34:13;;;;;;;;;;;;;;;8.86;64.58;94993.16;5089227;28;24128;-74
2022/09/22 01:36:41;;;;;;;;;;;;;;;8.80;65.06;94993.56;5089415;28;20385;-74
2022/09/22 01:39:09;;;;;;;;;;;;;;;8.75;64.93;94998.28;5089242;28;19920;-74
2022/09/22 01:41:53;;;;;;;;;;;;;;;8.75;64.68;94990.53;5090364;28;19919;-74
2022/09/22 01:44:30;;;;;;;;;;;;;;;8.71;65.23;95007.19;5090448;28;19920;-74
2022/09/22 01:46:56;;;;;;;;;;;;;;;8.71;64.91;94997.66;5089013;28;19912;-74
2022/09/22 01:49:22;;;;;;;;;;;;;;;8.59;65.25;94997.75;5072147;28;19920;-74
2022/09/22 01:51:58;;;;;;;;;;;;;;;8.50;65.19;95000.06;5072106;28;19942;-74
2022/09/22 01:54:35;;;;;;;;;;;;;;;8.28;66.16;94997.31;5088655;28;19974;-74
2022/09/22 01:57:04;;;;;;;;;;;;;;;8.34;65.59;94996.88;5072130;28;19919;-74
2022/09/22 01:59:29;;;;;;;;;;;;;;;8.26;65.68;94994.00;5072050;28;19977;-74
2022/09/22 02:01:58;;;;;;;;;;;;;;;8.31;65.28;94989.31;5088995;28;19927;-74
2022/09/22 02:04:24;;;;;;;;;;;;;;;8.21;65.74;94999.47;5089127;28;19953;-73
2022/09/22 02:07:08;;;;;;;;;;;;;;;8.12;65.89;94996.72;5089259;28;20000;-74
2022/09/22 02:09:34;;;;;;;;;;;;;;;7.85;66.64;95000.28;5089124;28;19981;-74
2022/09/22 02:12:00;;;;;;;;;;;;;;;7.81;66.70;94999.69;5088990;28;19920;-74
2022/09/22 02:14:25;;;;;;;;;;;;;;;7.78;66.30;94999.09;5090312;28;20460;-74
2022/09/22 02:16:51;;;;;;;;;;;;;;;7.83;66.15;94997.84;5088621;28;24118;-73
2022/09/22 02:19:16;;;;;;;;;;;;;;;7.75;65.79;94996.72;5088855;28;19912;-74
2022/09/22 02:21:43;;;;;;;;;;;;;;;7.69;65.98;94997.97;5089779;28;19916;-73
2022/09/22 02:24:47;;;;;;;;;;;;;;;7.49;66.83;94994.13;5088394;28;19949;-74
2022/09/22 02:27:19;;;;;;;;;;;;;;;7.55;66.78;94998.91;5104161;28;25062;-74
2022/09/22 02:29:48;;;;;;;;;;;;;;;7.47;66.67;95006.34;5070279;28;19923;-73
2022/09/22 02:32:14;;;;;;;;;;;;;;;7.44;67.40;95006.56;5078226;28;19932;-74
2022/09/22 02:34:40;;;;;;;;;;;;;;;7.37;67.49;94994.97;5071621;28;20391;-73
2022/09/22 02:37:07;;;;;;;;;;;;;;;7.34;67.79;95001.16;5089530;28;19998;-74
2022/09/22 02:40:02;;;;;;;;;;;;;;;7.33;67.55;94998.69;5071014;28;19916;-74
2022/09/22 02:42:32;;;;;;;;;;;;;;;7.21;68.02;94999.50;5103853;28;20070;-74
2022/09/22 02:45:00;;;;;;;;;;;;;;;7.30;67.96;94999.72;5091999;28;19915;-73
2022/09/22 02:47:27;;;;;;;;;;;;;;;7.26;67.88;95002.59;5092350;28;20117;-73
2022/09/22 02:49:54;;;;;;;;;;;;;;;7.21;68.56;95010.66;5075563;28;20038;-74
2022/09/22 02:52:20;;;;;;;;;;;;;;;7.15;68.23;95013.66;5093341;28;20301;-74
2022/09/22 02:54:45;;;;;;;;;;;;;;;7.16;68.10;95008.38;5092287;28;19920;-73
2022/09/22 02:57:10;;;;;;;;;;;;;;;7.13;68.20;95012.91;5093165;28;20294;-74
2022/09/22 02:59:36;;;;;;;;;;;;;;;7.05;68.59;95016.03;5091436;28;19916;-74
2022/09/22 03:02:01;;;;;;;;;;;;;;;7.08;68.80;95015.00;5091880;28;25156;-73
2022/09/22 03:04:26;;;;;;;;;;;;;;;6.97;69.29;95007.94;5091760;28;19916;-74
2022/09/22 03:06:52;;;;;;;;;;;;;;;6.98;69.13;95009.59;5092184;28;19916;-74
2022/09/22 03:09:17;;;;;;;;;;;;;;;6.91;69.26;95018.69;5091952;28;20332;-74
2022/09/22 03:11:42;;;;;;;;;;;;;;;7.01;69.31;95008.56;5092231;28;20373;-74
2022/09/22 03:14:08;;;;;;;;;;;;;;;6.98;69.42;95009.59;5092177;28;24084;-74
2022/09/22 03:16:33;;;;;;;;;;;;;;;6.96;69.52;95008.03;5092215;28;19920;-73
2022/09/22 03:18:58;;;;;;;;;;;;;;;6.92;69.87;95010.00;5092282;28;20358;-74
2022/09/22 03:21:24;;;;;;;;;;;;;;;6.88;70.49;95011.09;5091968;28;19974;-73
2022/09/22 03:23:49;;;;;;;;;;;;;;;6.93;70.88;95022.78;5091950;28;19922;-74
2022/09/22 03:26:14;;;;;;;;;;;;;;;7.10;70.69;95015.69;5091653;28;19920;-73
2022/09/22 03:28:39;;;;;;;;;;;;;;;7.07;70.37;95019.31;5091724;28;19986;-73
2022/09/22 03:31:05;;;;;;;;;;;;;;;7.06;71.09;95017.66;5091694;28;19951;-74
2022/09/22 03:33:30;;;;;;;;;;;;;;;7.13;71.11;95016.34;5091582;28;24059;-74
2022/09/22 03:35:55;;;;;;;;;;;;;;;7.12;71.08;95022.41;5091698;28;20286;-74
2022/09/22 03:38:20;;;;;;;;;;;;;;;7.21;70.82;95020.16;5091700;28;19919;-73
2022/09/22 03:40:49;;;;;;;;;;;;;;;7.22;70.94;95016.66;5091536;28;20377;-74
2022/09/22 03:43:16;;;;;;;;;;;;;;;7.10;71.14;95018.28;5091425;28;19919;-74
2022/09/22 03:45:41;;;;;;;;;;;;;;;7.25;70.71;95019.03;5091421;28;20386;-74
2022/09/22 03:48:06;;;;;;;;;;;;;;;7.01;71.55;95021.47;5091114;28;19995;-73
2022/09/22 03:50:32;;;;;;;;;;;;;;;7.25;70.80;95014.69;5092586;28;19920;-74
2022/09/22 03:52:57;;;;;;;;;;;;;;;7.28;70.58;95021.44;5091212;28;19923;-74
2022/09/22 03:55:24;;;;;;;;;;;;;;;7.25;70.77;95016.47;5090466;28;20446;-74
2022/09/22 03:57:49;;;;;;;;;;;;;;;7.37;70.01;95018.22;5092663;28;19947;-74
2022/09/22 04:00:15;;;;;;;;;;;;;;;7.36;69.82;95029.50;5091282;28;20460;-74
2022/09/22 04:02:40;;;;;;;;;;;;;;;7.06;71.27;95024.59;5092819;28;19916;-74
2022/09/22 04:05:06;;;;;;;;;;;;;;;6.93;71.66;95024.56;5091559;28;19916;-73
2022/09/22 04:07:31;;;;;;;;;;;;;;;6.92;72.33;95026.31;5090815;28;24101;-74
2022/09/22 04:09:57;;;;;;;;;;;;;;;6.86;72.63;95026.72;5091060;28;19963;-73
2022/09/22 04:12:22;;;;;;;;;;;;;;;6.95;72.53;95033.03;5090521;28;24145;-75
2022/09/22 04:14:47;;;;;;;;;;;;;;;7.06;72.61;95038.34;5090937;28;19919;-73
2022/09/22 04:17:13;;;;;;;;;;;;;;;7.12;71.76;95035.34;5091908;28;20309;-73
2022/09/22 04:19:38;;;;;;;;;;;;;;;7.14;71.94;95030.91;5091572;28;24070;-74
2022/09/22 04:22:03;;;;;;;;;;;;;;;7.23;71.07;95034.63;5091063;28;19916;-74
2022/09/22 04:24:29;;;;;;;;;;;;;;;7.15;71.30;95029.97;5092252;28;24106;-74
2022/09/22 04:26:54;;;;;;;;;;;;;;;7.13;71.54;95039.59;5092003;28;19915;-74
2022/09/22 04:29:19;;;;;;;;;;;;;;;7.28;71.10;95030.00;5090744;28;20318;-74
2022/09/22 04:31:45;;;;;;;;;;;;;;;7.44;70.43;95026.38;5090550;28;24144;-74
2022/09/22 04:34:10;;;;;;;;;;;;;;;7.55;70.47;95037.66;5090473;28;19970;-74
2022/09/22 04:36:35;;;;;;;;;;;;;;;7.63;70.09;95031.13;5091564;28;24101;-73
2022/09/22 04:39:03;;;;;;;;;;;;;;;7.76;69.73;95026.78;5090212;28;25055;-74
2022/09/22 04:41:28;;;;;;;;;;;;;;;7.67;69.71;95032.59;5090268;28;19930;-74
2022/09/22 04:43:53;;;;;;;;;;;;;;;7.67;69.64;95030.03;5091772;28;19916;-74
2022/09/22 04:46:19;;;;;;;;;;;;;;;7.76;69.65;95034.56;5090230;28;19920;-74
2022/09/22 04:48:44;;;;;;;;;;;;;;;7.82;69.43;95034.13;5091215;28;19912;-74
2022/09/22 04:51:09;;;;;;;;;;;;;;;7.94;68.78;95032.47;5091152;28;25067;-74
2022/09/22 04:53:34;;;;;;;;;;;;;;;7.91;68.21;95028.34;5090092;28;20301;-74
2022/09/22 04:56:00;;;;;;;;;;;;;;;7.98;68.02;95039.91;5089867;28;19972;-73
2022/09/22 04:58:25;;;;;;;;;;;;;;;7.96;68.69;95033.19;5091295;28;19970;-74
2022/09/22 05:00:54;;;;;;;;;;;;;;;8.02;68.59;95032.75;5090330;28;19916;-74
2022/09/22 05:03:19;;;;;;;;;;;;;;;8.03;68.67;95027.50;5089853;28;20053;-74
2022/09/22 05:05:46;;;;;;;;;;;;;;;8.07;68.61;95033.28;5089906;28;19999;-74
2022/09/22 05:08:11;;;;;;;;;;;;;;;8.06;68.44;95035.03;5090237;28;19920;-74
2022/09/22 05:10:36;;;;;;;;;;;;;;;8.21;68.21;95037.47;5089848;28;19923;-74
2022/09/22 05:13:02;;;;;;;;;;;;;;;8.28;67.43;95033.53;5090782;28;24064;-74
2022/09/22 05:15:27;;;;;;;;;;;;;;;8.41;66.80;95029.19;5089392;28;20344;-74
2022/09/22 05:17:52;;;;;;;;;;;;;;;8.56;66.06;95036.81;5089345;28;25127;-74
2022/09/22 05:20:18;;;;;;;;;;;;;;;8.57;66.50;95038.44;5089108;28;19945;-74
2022/09/22 05:22:44;;;;;;;;;;;;;;;8.65;65.75;95036.13;5089700;28;20003;-74
2022/09/22 05:25:10;;;;;;;;;;;;;;;8.60;66.41;95041.63;5089748;28;20316;-74
2022/09/22 05:27:36;;;;;;;;;;;;;;;8.76;64.97;95036.19;5089576;28;20015;-74
2022/09/22 05:30:03;;;;;;;;;;;;;;;8.79;65.29;95038.56;5089473;28;24110;-74
2022/09/22 05:32:28;;;;;;;;;;;;;;;8.58;65.75;95029.72;5072897;28;20144;-74
2022/09/22 05:34:54;;;;;;;;;;;;;;;8.73;65.41;95031.25;5089536;28;19999;-74
2022/09/22 05:37:19;;;;;;;;;;;;;;;8.76;65.10;95032.78;5089190;28;19916;-74
2022/09/22 05:39:44;;;;;;;;;;;;;;;8.75;65.24;95031.09;5089238;28;19988;-74
2022/09/22 05:42:10;;;;;;;;;;;;;;;8.86;65.06;95033.75;5089068;28;20014;-74
2022/09/22 05:44:35;;;;;;;;;;;;;;;9.01;64.18;95035.25;5089588;28;20271;-74
2022/09/22 05:47:00;;;;;;;;;;;;;;;9.00;64.52;95032.75;5089853;28;19916;-74
2022/09/22 05:49:25;;;;;;;;;;;;;;;9.10;63.70;95033.75;5090158;28;24062;-73
2022/09/22 05:51:54;;;;;;;;;;;;;;;9.21;63.64;95035.53;5088909;28;20052;-74
2022/09/22 05:54:19;;;;;;;;;;;;;;;9.09;64.29;95030.31;5088860;28;20394;-74
2022/09/22 05:56:44;;;;;;;;;;;;;;;9.08;64.40;95040.78;5089041;28;19994;-74
2022/09/22 05:59:10;;;;;;;;;;;;;;;9.19;63.76;95040.81;5088553;28;19920;-74
2022/09/22 06:01:37;;;;;;;;;;;;;;;9.25;64.28;95037.81;5089115;28;20003;-74
2022/09/22 06:04:02;;;;;;;;;;;;;;;9.29;63.51;95030.63;5089123;28;19920;-74
2022/09/22 06:06:27;;;;;;;;;;;;;;;9.17;64.22;95035.78;5088820;28;20393;-74
2022/09/22 06:08:53;;;;;;;;;;;;;;;9.35;64.14;95032.75;5089139;28;20274;-74
2022/09/22 06:11:18;;;;;;;;;;;;;;;9.55;62.89;95031.25;5088781;28;24069;-74
2022/09/22 06:13:43;;;;;;;;;;;;;;;9.73;62.84;95031.66;5088712;28;24079;-74
2022/09/22 06:16:09;;;;;;;;;;;;;;;9.90;61.92;95033.78;5088685;28;19985;-74
2022/09/22 06:18:34;;;;;;;;;;;;;;;9.94;62.60;95035.19;5090297;28;19916;-74
2022/09/22 06:20:59;;;;;;;;;;;;;;;10.05;62.37;95032.59;5094385;28;19920;-74
2022/09/22 06:23:25;;;;;;;;;;;;;;;9.94;62.25;95029.16;5094257;28;20373;-74
2022/09/22 06:25:57;;;;;;;;;;;;;;;10.14;61.80;95038.84;5092821;28;19996;-75
2022/09/22 06:28:22;;;;;;;;;;;;;;;10.15;61.98;95035.31;5092798;28;19916;-74
2022/09/22 06:30:48;;;;;;;;;;;;;;;10.22;60.80;95026.09;5092752;28;24183;-74
2022/09/22 06:33:13;;;;;;;;;;;;;;;10.26;61.02;95032.69;5093988;28;19923;-74
2022/09/22 06:35:44;;;;;;;;;;;;;;;10.41;60.54;95042.84;5092542;28;20104;-74
2022/09/22 06:38:11;;;;;;;;;;;;;;;10.39;60.26;95036.94;5093063;28;19919;-74
2022/09/22 06:40:36;;;;;;;;;;;;;;;10.56;59.93;95038.22;5092611;28;19923;-74
2022/09/22 06:43:06;;;;;;;;;;;;;;;10.56;59.47;95038.22;5092009;28;24057;-74
2022/09/22 06:45:31;;;;;;;;;;;;;;;10.73;59.21;95041.16;5092135;28;19923;-74
2022/09/22 06:47:57;;;;;;;;;;;;;;;10.88;58.65;95038.25;5092245;28;20309;-73
2022/09/22 06:50:23;;;;;;;;;;;;;;;11.01;58.43;95033.72;5092122;28;19923;-74
2022/09/22 06:52:50;;;;;;;;;;;;;;;10.94;58.22;95032.56;5075532;28;20415;-74
2022/09/22 06:55:19;;;;;;;;;;;;;;;11.04;58.30;95035.25;5093411;28;19916;-74
2022/09/22 06:57:44;;;;;;;;;;;;;;;11.14;57.71;95031.78;5076046;28;19912;-74
2022/09/22 07:00:10;;;;;;;;;;;;;;;11.34;57.58;95030.16;5093022;28;19945;-74
2022/09/22 07:02:35;;;;;;;;;;;;;;;11.42;57.07;95037.31;5091903;28;19922;-74
2022/09/22 07:05:01;;;;;;;;;;;;;;;11.50;57.21;95034.06;5091648;28;19923;-74
2022/09/22 07:07:27;;;;;;;;;;;;;;;11.45;57.61;95044.88;5091951;28;19920;-73
2022/09/22 07:09:53;;;;;;;;;;;;;;;11.53;57.17;95034.66;5075492;28;19920;-75
2022/09/22 07:12:19;;;;;;;;;;;;;;;11.57;56.95;95036.03;5092195;28;19983;-75
2022/09/22 07:14:47;;;;;;;;;;;;;;;11.57;56.57;95036.03;5091885;28;19923;-75
2022/09/22 07:17:13;;;;;;;;;;;;;;;11.46;57.18;95036.13;5093143;28;25080;-75
2022/09/22 07:19:38;;;;;;;;;;;;;;;11.47;56.82;95042.94;5091479;28;20035;-74
2022/09/22 07:22:03;;;;;;;;;;;;;;;11.28;56.98;95033.25;5091690;28;20367;-75
2022/09/22 07:24:29;;;;;;;;;;;;;;;11.23;57.17;95037.16;5092008;28;19916;-75
2022/09/22 07:26:54;;;;;;;;;;;;;;;11.30;56.95;95039.13;5092867;28;19916;-75
2022/09/22 07:29:19;;;;;;;;;;;;;;;11.29;56.83;95029.69;5092717;28;19920;-75
2022/09/22 07:31:44;;;;;;;;;;;;;;;11.39;56.57;95033.22;5090703;28;19939;-75
2022/09/22 07:34:11;;;;;;;;;;;;;;;11.50;56.08;95036.66;5091483;28;20297;-75
2022/09/22 07:36:36;;;;;;;;;;;;;;;11.48;55.67;95035.97;5091172;28;25057;-75
2022/09/22 07:39:11;;;;;;;;;;;;;;;11.55;56.03;95042.31;5091578;28;19916;-75
2022/09/22 07:41:42;;;;;;;;;;;;;;;11.54;56.50;95036.31;5091952;28;19924;-75
2022/09/22 07:46:52;;;;;;;;;;;;;;;11.69;55.68;95034.19;5091333;28;25200;-75
2022/09/22 07:49:20;;;;;;;;;;;;;;;11.74;55.56;95045.03;5091301;28;19999;-75
2022/09/22 07:51:45;;;;;;;;;;;;;;;11.70;55.64;95041.06;5091624;28;19998;-75
2022/09/22 07:54:10;;;;;;;;;;;;;;;11.76;55.91;95042.31;5090760;28;20077;-75
2022/09/22 07:56:40;;;;;;;;;;;;;;;11.71;55.99;95045.31;5124789;27;19916;-75
2022/09/22 07:59:09;;;;;;;;;;;;;;;11.73;55.25;95039.94;5090701;28;19916;-75
2022/09/22 08:01:34;;;;;;;;;;;;;;;11.83;54.72;95035.63;5092451;28;19938;-75
2022/09/22 08:03:59;;;;;;;;;;;;;;;11.87;55.14;95038.81;5091017;28;20361;-75
2022/09/22 08:06:26;;;;;;;;;;;;;;;11.89;55.28;95040.34;5073913;28;19930;-75
2022/09/22 08:08:54;;;;;;;;;;;;;;;11.88;55.95;95043.09;5091041;28;19923;-76
2022/09/22 08:11:26;;;;;;;;;;;;;;;11.98;54.98;95037.00;5090771;28;20005;-75
2022/09/22 08:13:55;;;;;;;;;;;;;;;12.17;54.48;95031.00;5073689;28;20281;-75
2022/09/22 08:16:21;;;;;;;;;;;;;;;12.26;54.47;95032.03;5090280;28;19927;-75
2022/09/22 08:18:54;;;;;;;;;;;;;;;12.36;54.29;95032.88;5073553;28;19965;-75
2022/09/22 08:21:20;;;;;;;;;;;;;;;12.46;53.43;95038.94;5090258;28;19956;-75
2022/09/22 08:23:45;;;;;;;;;;;;;;;12.64;52.88;95031.28;5091756;28;19962;-75
2022/09/22 08:26:10;;;;;;;;;;;;;;;12.82;52.58;95022.84;5090454;28;19920;-74
2022/09/22 08:28:36;;;;;;;;;;;;;;;13.07;51.27;95017.09;5090309;28;19946;-74
2022/09/22 08:31:01;;;;;;;;;;;;;;;13.31;51.17;95010.63;5091331;28;19991;-74
2022/09/22 08:33:28;;;;;;;;;;;;;;;13.52;49.41;95013.91;5090195;28;20015;-74
2022/09/22 08:35:53;;;;;;;;;;;;;;;13.73;50.03;95013.72;5072985;28;19923;-75
2022/09/22 08:38:20;;;;;;;;;;;;;;;13.83;48.34;95008.47;5089737;28;20301;-75
2022/09/22 08:40:46;;;;;;;;;;;;;;;13.86;47.85;95014.22;5089560;28;24067;-75
2022/09/22 08:43:12;;;;;;;;;;;;;;;13.96;47.40;95002.97;5089599;28;19959;-75
2022/09/22 08:45:37;;;;;;;;;;;;;;;14.05;46.80;94999.47;5089568;28;20058;-75
2022/09/22 08:53:33;;;;;;;;;;;;;;;14.29;47.57;95006.78;5089675;28;19922;-75
2022/09/22 08:56:04;;;;;;;;;;;;;;;14.32;46.01;95003.91;5089360;28;25161;-75
2022/09/22 08:58:30;;;;;;;;;;;;;;;14.33;45.10;95007.34;5089108;28;19916;-75
2022/09/22 09:00:59;;;;;;;;;;;;;;;14.43;45.08;95000.25;5090946;28;19916;-75
2022/09/22 09:03:44;;;;;;;;;;;;;;;14.48;43.86;95006.69;5072168;28;19986;-75
2022/09/22 09:06:14;;;;;;;;;;;;;;;14.59;42.97;94995.22;5122944;27;19920;-75
2022/09/22 09:08:46;;;;;;;;;;;;;;;14.67;41.73;94992.69;5090381;28;19962;-75
2022/09/22 09:11:15;;;;;;;;;;;;;;;14.78;42.69;94994.28;5088838;28;20290;-75
2022/09/22 09:14:00;;;;;;;;;;;;;;;14.88;43.97;94989.00;5071786;28;19916;-75
2022/09/22 09:16:32;;;;;;;;;;;;;;;15.10;44.33;94985.09;5089531;28;19916;-75
2022/09/22 09:19:12;;;;;;;;;;;;;;;15.19;44.30;94987.63;5090148;28;19916;-75
2022/09/22 09:21:38;;;;;;;;;;;;;;;15.19;44.29;94995.50;5089371;28;20305;-75
2022/09/22 09:24:09;;;;;;;;;;;;;;;15.19;44.44;94999.91;5090429;28;19916;-75
2022/09/22 09:26:34;;;;;;;;;;;;;;;15.07;42.30;94996.69;5072351;28;20003;-75
2022/09/22 09:29:00;;;;;;;;;;;;;;;14.92;42.32;94992.94;5088849;28;20014;-74
2022/09/22 09:31:37;;;;;;;;;;;;;;;14.82;41.77;94984.34;5088446;28;24066;-75
2022/09/22 09:34:04;;;;;;;;;;;;;;;14.81;43.30;94990.56;5088970;28;20029;-75
2022/09/22 09:36:40;;;;;;;;;;;;;;;14.89;42.51;94982.78;5088568;28;19920;-75
2022/09/22 09:39:09;;;;;;;;;;;;;;;15.02;42.87;94974.59;5089043;28;19927;-75
2022/09/22 09:41:35;;;;;;;;;;;;;;;15.14;42.67;94971.56;5088731;28;19922;-74
2022/09/22 09:44:01;;;;;;;;;;;;;;;15.16;42.85;94974.84;5091473;28;19916;-75
2022/09/22 09:46:29;;;;;;;;;;;;;;;15.22;42.50;94975.22;5090745;28;19920;-75
2022/09/22 09:49:04;;;;;;;;;;;;;;;15.17;42.59;94978.28;5091406;28;19919;-75
2022/09/22 09:51:34;;;;;;;5.95;2.22;;;;;;;15.00;42.35;94977.34;5090238;28;19920;-73
2022/09/22 09:54:04;;;;;;;2.75;1.80;;;;;;;14.96;42.77;94966.34;5089384;28;20040;-73
2022/09/22 09:56:29;;;;;;;;;;;;;;;15.05;43.72;94977.72;5090385;28;19943;-73
2022/09/22 10:01:39;;;;;;;;;;;;;;;14.89;42.09;94969.72;5091593;28;19923;-73
2022/09/22 10:04:04;;;;;;;;;;;;;;;14.86;41.19;94970.00;5090302;28;19916;-73
2022/09/22 10:06:30;;;;;;;;;;;;;;;14.92;43.68;94972.03;5090270;28;19970;-73
2022/09/22 10:08:56;;;;;;;;;;;;;;;15.07;42.25;94964.47;5090133;28;20388;-74
2022/09/22 10:11:30;;;;;;;;;;;;;;;14.98;40.99;94958.34;5091400;28;20396;-73
2022/09/22 10:13:56;;;;;;;;;;;;;;;15.08;40.12;94950.44;5090176;28;19916;-73
2022/09/22 10:16:25;;;;;;;;;;;;;;;15.01;40.58;94949.38;5073280;28;19916;-73
2022/09/22 10:18:51;;;;;;;;;;;;;;;14.82;40.45;94951.19;5090151;28;19978;-73
2022/09/22 10:21:16;;;;;;;;;;;;;;;14.90;42.18;94945.19;5090023;28;20317;-74
2022/09/22 10:23:42;;;;;;;;;;;;;;;15.00;41.60;94955.59;5091307;28;19916;-74
2022/09/22 10:26:18;;;;;;;;;;;;;;;15.16;39.41;94950.50;5073141;28;19916;-74
2022/09/22 10:28:46;;;;;;;;;;;;;;;15.04;40.18;94942.03;5090021;28;19916;-74
2022/09/22 10:31:23;;;;;;;;;;;;;;;15.07;40.77;94941.75;5073467;28;20019;-74
2022/09/22 10:33:55;;;;;;;;;;;;;;;15.17;40.27;94939.03;5090040;28;19923;-74
2022/09/22 10:36:24;;;;;;;;;;;;;;;15.25;38.93;94933.88;5091161;28;20408;-73
2022/09/22 10:38:50;;;;;;;;;;;;;;;15.14;39.68;94926.28;5089885;28;19945;-74
2022/09/22 10:41:29;;;;;;;;;;;;;;;15.15;40.87;94935.75;5089843;28;19916;-74
2022/09/22 10:44:13;;;;;;;;;;;;;;;15.16;40.19;94933.00;5074067;28;20002;-74
2022/09/22 10:47:02;;;;;;;;;;;;;;;15.27;40.03;94936.34;5091181;28;19920;-74
2022/09/22 10:49:30;;;;;;;;;;;;;;;15.35;36.75;94923.28;5089724;28;19919;-74
2022/09/22 10:52:08;;;;;;;;;;;;;;;15.19;37.53;94919.59;5091049;28;19973;-73
2022/09/22 10:54:33;;;;;;;;;;;;;;;15.17;37.95;94911.09;5089828;28;20305;-74
2022/09/22 10:57:07;;;;;;;;;;;;;;;15.18;38.25;94912.75;5091055;28;19916;-73
2022/09/22 10:59:54;;;;;;;;;;;;;;;15.26;39.17;94906.72;5089851;28;20182;-74
2022/09/22 11:02:19;;;;;;;;;;;;;;;15.36;39.33;94915.31;5090852;28;19923;-74
2022/09/22 11:05:01;;;;;;;;;;;;;;;15.48;40.73;94907.19;5092707;28;20369;-74
2022/09/22 11:13:13;;;;;;;;;;;;;;;15.71;39.56;94902.28;5094541;28;19927;-74
2022/09/22 11:15:42;;;;;;;;;;;;;;;15.71;38.17;94897.03;5093297;28;19923;-74
2022/09/22 11:18:26;;;;;;;;;;;;;;;15.70;38.30;94901.44;5093312;28;19912;-74
2022/09/22 11:21:00;;;;;;;;;;;;;;;15.73;38.14;94901.13;5094424;28;19916;-74
2022/09/22 11:23:25;;;;;;;;;;;;;;;15.71;37.51;94891.78;5076372;28;19922;-74
2022/09/22 11:26:00;;;;;;;;;;;;;;;15.70;37.52;94885.75;5093058;28;19916;-74
2022/09/22 11:28:29;;;;;;;;;;;;;;;15.79;36.81;94892.66;5093300;28;19995;-74
2022/09/22 11:30:57;;;;;;;;;;;;;;;15.65;37.02;94878.31;5093006;28;19965;-74
2022/09/22 11:33:32;;;;;;;;;;;;;;;15.80;37.92;94886.44;5092957;28;19969;-74
2022/09/22 11:36:06;;;;;;;;;;;;;;;15.91;37.96;94876.66;5094206;28;20007;-74
2022/09/22 11:38:44;;;;;;;;;;;;;;;15.93;38.03;94891.22;5094153;28;19916;-74
2022/09/22 11:41:18;;;;;;;;;;;;;;;15.78;39.17;94890.19;5092676;28;20018;-74
2022/09/22 11:43:54;;;;;;;;;;;;;;;15.70;38.34;94879.69;5092847;28;20503;-74
2022/09/22 11:46:31;;;;;;;;;;;;;;;15.72;38.47;94875.13;5092762;28;19939;-74
2022/09/22 11:49:16;;;;;;;;;;;;;;;15.88;39.67;94871.72;5075840;28;19916;-74
2022/09/22 11:51:44;;;;;;;;;;;;;;;15.93;38.31;94877.31;5092553;28;20018;-74
2022/09/22 11:54:15;;;;;;;;;;;;;;;15.98;39.94;94868.00;5092501;28;19916;-74
2022/09/22 11:56:46;;;;;;;;;;;;;;;16.03;38.18;94860.50;5092565;28;19919;-74
2022/09/22 11:59:14;;;;;;;;;;;;;;;16.07;37.92;94853.13;5092244;28;19967;-74
2022/09/22 12:01:39;;;;;;;;;;;;;;;16.21;37.47;94849.06;5093655;28;19916;-74
2022/09/22 12:04:17;;;;;;;;;;;;;;;16.14;38.12;94866.44;5092425;28;19973;-74
2022/09/22 12:06:43;;;;;;;;;;;;;;;16.13;38.47;94865.63;5092361;28;20374;-74
2022/09/22 12:09:13;;;;;;;;;;;;;;;16.20;38.14;94871.03;5092288;28;19916;-74
2022/09/22 12:11:38;;;;;;;;;;;;;;;16.17;36.46;94864.31;5092261;28;19916;-74
2022/09/22 12:14:04;;;;;;;;;;;;;;;16.14;36.82;94861.19;5092171;28;20412;-74
2022/09/22 12:16:40;;;;;;;;;;;;;;;16.05;38.59;94879.50;5092798;28;20355;-74
2022/09/22 12:19:05;;;;;;;;;;;;;;;15.91;40.20;94882.72;5092226;28;19912;-74
2022/09/22 12:22:00;;;;;;;;;;;;;;;15.69;40.73;94873.63;5091907;28;19916;-74
2022/09/22 12:24:25;;;;;;;;;;;;;;;15.71;40.57;94876.09;5090946;28;19916;-74
2022/09/22 12:26:51;;;;;;;;;;;;;;;15.79;41.91;94870.88;5091966;28;19923;-74
2022/09/22 12:29:21;;;;;;;;;;;;;;;15.85;41.47;94867.63;5091902;28;19916;-74
2022/09/22 12:31:47;;;;;;;;;;;;;;;16.02;41.67;94866.72;5075120;28;20317;-74
2022/09/22 12:34:17;;;;;;;;;;;;;;;16.05;39.64;94862.97;5093217;28;19916;-74
2022/09/22 12:36:42;;;;;;;;;;;;;;;16.07;40.14;94866.22;5093339;28;19916;-75
2022/09/22 12:39:18;;;;;;;;;;;;;;;16.13;39.16;94870.00;5091682;28;19916;-74
2022/09/22 12:41:47;;;;;;;;;;;;;;;15.94;38.44;94871.94;5075091;28;20011;-74
2022/09/22 12:44:17;;;;;;;;;;;;;;;16.00;38.25;94873.91;5091550;28;19955;-74
2022/09/22 12:46:42;;;;;;;;;;;;;;;16.05;38.38;94876.06;5092789;28;19938;-74
2022/09/22 12:49:08;;;;;;;;;;;;;;;16.11;37.86;94862.31;5091552;28;20397;-74
2022/09/22 12:51:33;;;;;;;;;;;;;;;16.15;38.51;94873.31;5091798;28;19923;-74
2022/09/22 12:54:17;;;;;;;;;;;;;;;16.22;37.87;94858.59;5091417;28;19923;-74
2022/09/22 12:56:45;;;;;;;;;;;;;;;16.17;37.55;94855.63;5091116;28;19923;-74
2022/09/22 12:59:29;;;;;;;;;;;;;;;16.16;37.14;94867.06;5074232;28;20379;-74
2022/09/22 13:02:13;;;;;;;;;;;;;;;16.15;37.69;94858.38;5092464;28;20453;-74
2022/09/22 13:04:38;;;;;;;;;;;;;;;16.16;37.68;94869.69;5091187;28;19916;-74
2022/09/22 13:07:04;;;;;;;;;;;;;;;16.03;38.09;94870.97;5091080;28;19923;-74
2022/09/22 13:09:30;;;;;;;;;;;;;;;16.03;38.75;94873.59;5090442;28;19911;-74
2022/09/22 13:12:10;;;;;;;;;;;;;;;15.94;39.28;94874.56;5117504;27;19974;-74
2022/09/22 13:14:53;;;;;;;;;;;;;;;15.89;39.55;94874.19;5129860;27;20189;-73